sensor_id;sensor_type;location;lat;lon;timestamp;temperature;humidity
25112;DHT22;13092;51.996;4.458;2022-10-19T00:01:07;10.80;99.90
25112;DHT22;13092;51.996;4.458;2022-10-19T00:03:35;10.80;99.90
25112;DHT22;13092;51.996;4.458;2022-10-19T00:06:13;10.80;99.90
25112;DHT22;13092;51.996;4.458;2022-10-19T00:08:41;10.70;99.90
25112;DHT22;13092;51.996;4.458;2022-10-19T00:11:10;10.80;99.90
25112;DHT22;13092;51.996;4.458;2022-10-19T00:13:38;10.80;99.90
25112;DHT22;13092;51.996;4.458;2022-10-19T00:16:08;10.80;99.90
25112;DHT22;13092;51.996;4.458;2022-10-19T00:18:37;10.80;99.90
25112;DHT22;13092;51.996;4.458;2022-10-19T00:21:07;10.80;99.90
25112;DHT22;13092;51.996;4.458;2022-10-19T00:23:37;10.80;99.90
25112;DHT22;13092;51.996;4.458;2022-10-19T00:26:05;10.80;99.90
25112;DHT22;13092;51.996;4.458;2022-10-19T00:28:34;10.70;99.90
25112;DHT22;13092;51.996;4.458;2022-10-19T00:31:03;10.70;99.90
25112;DHT22;13092;51.996;4.458;2022-10-19T00:33:31;10.70;99.90
25112;DHT22;13092;51.996;4.458;2022-10-19T00:35:59;10.50;99.90
25112;DHT22;13092;51.996;4.458;2022-10-19T00:38:27;10.50;99.90
25112;DHT22;13092;51.996;4.458;2022-10-19T00:40:57;10.50;99.90
25112;DHT22;13092;51.996;4.458;2022-10-19T00:43:27;10.30;99.90
25112;DHT22;13092;51.996;4.458;2022-10-19T00:45:57;10.40;99.90
25112;DHT22;13092;51.996;4.458;2022-10-19T00:48:29;10.30;99.90
25112;DHT22;13092;51.996;4.458;2022-10-19T00:50:58;10.30;99.90
25112;DHT22;13092;51.996;4.458;2022-10-19T00:53:28;10.30;99.90
25112;DHT22;13092;51.996;4.458;2022-10-19T00:56:01;10.20;99.90
25112;DHT22;13092;51.996;4.458;2022-10-19T00:58:30;10.00;99.90
25112;DHT22;13092;51.996;4.458;2022-10-19T01:01:00;10.10;99.90
25112;DHT22;13092;51.996;4.458;2022-10-19T01:03:29;10.10;99.90
25112;DHT22;13092;51.996;4.458;2022-10-19T01:05:58;10.10;99.90
25112;DHT22;13092;51.996;4.458;2022-10-19T01:08:27;10.00;99.90
25112;DHT22;13092;51.996;4.458;2022-10-19T01:11:04;10.00;99.90
25112;DHT22;13092;51.996;4.458;2022-10-19T01:13:44;10.00;99.90
25112;DHT22;13092;51.996;4.458;2022-10-19T01:16:17;10.00;99.90
25112;DHT22;13092;51.996;4.458;2022-10-19T01:18:52;10.00;99.90
25112;DHT22;13092;51.996;4.458;2022-10-19T01:21:23;9.90;99.90
25112;DHT22;13092;51.996;4.458;2022-10-19T01:24:21;9.90;99.90
25112;DHT22;13092;51.996;4.458;2022-10-19T01:30:12;9.90;99.90
25112;DHT22;13092;51.996;4.458;2022-10-19T01:33:02;9.80;99.90
25112;DHT22;13092;51.996;4.458;2022-10-19T01:35:36;9.80;99.90
25112;DHT22;13092;51.996;4.458;2022-10-19T01:38:17;9.80;99.90
25112;DHT22;13092;51.996;4.458;2022-10-19T01:40:53;9.70;99.90
25112;DHT22;13092;51.996;4.458;2022-10-19T01:43:31;9.70;99.90
25112;DHT22;13092;51.996;4.458;2022-10-19T01:46:06;9.70;99.90
25112;DHT22;13092;51.996;4.458;2022-10-19T01:48:39;9.90;99.90
25112;DHT22;13092;51.996;4.458;2022-10-19T01:51:12;9.80;99.90
25112;DHT22;13092;51.996;4.458;2022-10-19T01:53:45;9.80;99.90
25112;DHT22;13092;51.996;4.458;2022-10-19T01:56:17;10.00;99.90
25112;DHT22;13092;51.996;4.458;2022-10-19T01:58:47;9.80;99.90
25112;DHT22;13092;51.996;4.458;2022-10-19T02:01:19;9.80;99.90
25112;DHT22;13092;51.996;4.458;2022-10-19T02:03:50;9.80;99.90
25112;DHT22;13092;51.996;4.458;2022-10-19T02:06:20;9.70;99.90
25112;DHT22;13092;51.996;4.458;2022-10-19T02:08:50;9.70;99.90
25112;DHT22;13092;51.996;4.458;2022-10-19T02:11:20;9.70;99.90
25112;DHT22;13092;51.996;4.458;2022-10-19T02:13:53;9.80;99.90
25112;DHT22;13092;51.996;4.458;2022-10-19T02:16:26;9.60;99.90
25112;DHT22;13092;51.996;4.458;2022-10-19T02:18:57;9.60;99.90
25112;DHT22;13092;51.996;4.458;2022-10-19T02:21:27;9.50;99.90
25112;DHT22;13092;51.996;4.458;2022-10-19T02:23:55;9.50;99.90
25112;DHT22;13092;51.996;4.458;2022-10-19T02:26:23;9.50;99.90
25112;DHT22;13092;51.996;4.458;2022-10-19T02:28:52;9.60;99.90
25112;DHT22;13092;51.996;4.458;2022-10-19T02:31:22;9.40;99.90
25112;DHT22;13092;51.996;4.458;2022-10-19T02:33:51;9.50;99.90
25112;DHT22;13092;51.996;4.458;2022-10-19T02:36:20;9.40;99.90
25112;DHT22;13092;51.996;4.458;2022-10-19T02:38:49;9.40;99.90
25112;DHT22;13092;51.996;4.458;2022-10-19T02:41:20;9.40;99.90
25112;DHT22;13092;51.996;4.458;2022-10-19T02:43:55;9.40;99.90
25112;DHT22;13092;51.996;4.458;2022-10-19T02:46:31;9.40;99.90
25112;DHT22;13092;51.996;4.458;2022-10-19T02:49:02;9.30;99.90
25112;DHT22;13092;51.996;4.458;2022-10-19T02:51:32;9.30;99.90
25112;DHT22;13092;51.996;4.458;2022-10-19T02:54:01;9.30;99.90
25112;DHT22;13092;51.996;4.458;2022-10-19T02:56:31;9.20;99.90
25112;DHT22;13092;51.996;4.458;2022-10-19T02:59:00;9.20;99.90
25112;DHT22;13092;51.996;4.458;2022-10-19T03:01:29;9.30;99.90
25112;DHT22;13092;51.996;4.458;2022-10-19T03:03:57;9.20;99.90
25112;DHT22;13092;51.996;4.458;2022-10-19T03:06:25;9.20;99.90
25112;DHT22;13092;51.996;4.458;2022-10-19T03:08:53;9.10;99.90
25112;DHT22;13092;51.996;4.458;2022-10-19T03:11:21;9.10;99.90
25112;DHT22;13092;51.996;4.458;2022-10-19T03:13:49;9.10;99.90
25112;DHT22;13092;51.996;4.458;2022-10-19T03:16:17;9.10;99.90
25112;DHT22;13092;51.996;4.458;2022-10-19T03:18:48;9.00;99.90
25112;DHT22;13092;51.996;4.458;2022-10-19T03:21:17;9.00;99.90
25112;DHT22;13092;51.996;4.458;2022-10-19T03:23:45;9.00;99.90
25112;DHT22;13092;51.996;4.458;2022-10-19T03:26:14;9.00;99.90
25112;DHT22;13092;51.996;4.458;2022-10-19T03:28:43;9.00;99.90
25112;DHT22;13092;51.996;4.458;2022-10-19T03:31:11;9.10;99.90
25112;DHT22;13092;51.996;4.458;2022-10-19T03:33:39;8.90;99.90
25112;DHT22;13092;51.996;4.458;2022-10-19T03:36:18;8.80;99.90
25112;DHT22;13092;51.996;4.458;2022-10-19T03:38:49;8.80;99.90
25112;DHT22;13092;51.996;4.458;2022-10-19T03:41:17;8.80;99.90
25112;DHT22;13092;51.996;4.458;2022-10-19T03:43:45;8.70;99.90
25112;DHT22;13092;51.996;4.458;2022-10-19T03:46:14;8.90;99.90
25112;DHT22;13092;51.996;4.458;2022-10-19T03:48:42;8.80;99.90
25112;DHT22;13092;51.996;4.458;2022-10-19T03:51:13;8.80;99.90
25112;DHT22;13092;51.996;4.458;2022-10-19T03:53:43;9.00;99.90
25112;DHT22;13092;51.996;4.458;2022-10-19T03:56:12;8.80;99.90
25112;DHT22;13092;51.996;4.458;2022-10-19T03:58:41;8.80;99.90
25112;DHT22;13092;51.996;4.458;2022-10-19T04:01:11;8.90;99.90
25112;DHT22;13092;51.996;4.458;2022-10-19T04:03:40;8.80;99.90
25112;DHT22;13092;51.996;4.458;2022-10-19T04:06:10;8.90;99.90
25112;DHT22;13092;51.996;4.458;2022-10-19T04:08:47;9.00;99.90
25112;DHT22;13092;51.996;4.458;2022-10-19T04:11:17;8.80;99.90
25112;DHT22;13092;51.996;4.458;2022-10-19T04:13:47;8.80;99.90
25112;DHT22;13092;51.996;4.458;2022-10-19T04:16:16;8.80;99.90
25112;DHT22;13092;51.996;4.458;2022-10-19T04:18:45;8.80;99.90
25112;DHT22;13092;51.996;4.458;2022-10-19T04:21:20;9.00;99.90
25112;DHT22;13092;51.996;4.458;2022-10-19T04:23:51;9.10;99.90
25112;DHT22;13092;51.996;4.458;2022-10-19T04:26:20;8.90;99.90
25112;DHT22;13092;51.996;4.458;2022-10-19T04:28:48;8.90;99.90
25112;DHT22;13092;51.996;4.458;2022-10-19T04:31:16;8.90;99.90
25112;DHT22;13092;51.996;4.458;2022-10-19T04:33:44;8.80;99.90
25112;DHT22;13092;51.996;4.458;2022-10-19T04:36:14;8.90;99.90
25112;DHT22;13092;51.996;4.458;2022-10-19T04:38:42;8.90;99.90
25112;DHT22;13092;51.996;4.458;2022-10-19T04:41:13;9.10;99.90
25112;DHT22;13092;51.996;4.458;2022-10-19T04:43:41;9.10;99.90
25112;DHT22;13092;51.996;4.458;2022-10-19T04:46:12;9.10;99.90
25112;DHT22;13092;51.996;4.458;2022-10-19T04:48:41;9.20;99.90
25112;DHT22;13092;51.996;4.458;2022-10-19T04:51:10;9.20;99.90
25112;DHT22;13092;51.996;4.458;2022-10-19T04:53:40;9.20;99.90
25112;DHT22;13092;51.996;4.458;2022-10-19T04:56:12;9.20;99.90
25112;DHT22;13092;51.996;4.458;2022-10-19T04:58:41;9.20;99.90
25112;DHT22;13092;51.996;4.458;2022-10-19T05:01:10;9.30;99.90
25112;DHT22;13092;51.996;4.458;2022-10-19T05:03:39;9.30;99.90
25112;DHT22;13092;51.996;4.458;2022-10-19T05:06:08;9.30;99.90
25112;DHT22;13092;51.996;4.458;2022-10-19T05:08:37;9.40;99.90
25112;DHT22;13092;51.996;4.458;2022-10-19T05:11:07;9.40;99.90
25112;DHT22;13092;51.996;4.458;2022-10-19T05:13:37;9.40;99.90
25112;DHT22;13092;51.996;4.458;2022-10-19T05:16:07;9.30;99.90
25112;DHT22;13092;51.996;4.458;2022-10-19T05:18:36;9.30;99.90
25112;DHT22;13092;51.996;4.458;2022-10-19T05:21:06;9.10;99.90
25112;DHT22;13092;51.996;4.458;2022-10-19T05:23:34;9.10;99.90
25112;DHT22;13092;51.996;4.458;2022-10-19T05:26:04;9.10;99.90
25112;DHT22;13092;51.996;4.458;2022-10-19T05:28:33;9.10;99.90
25112;DHT22;13092;51.996;4.458;2022-10-19T05:31:07;9.20;99.90
25112;DHT22;13092;51.996;4.458;2022-10-19T05:33:36;9.10;99.90
25112;DHT22;13092;51.996;4.458;2022-10-19T05:36:12;9.00;99.90
25112;DHT22;13092;51.996;4.458;2022-10-19T05:38:41;9.00;99.90
25112;DHT22;13092;51.996;4.458;2022-10-19T05:41:09;9.00;99.90
25112;DHT22;13092;51.996;4.458;2022-10-19T05:43:38;8.90;99.90
25112;DHT22;13092;51.996;4.458;2022-10-19T05:46:10;8.90;99.90
25112;DHT22;13092;51.996;4.458;2022-10-19T05:48:38;8.90;99.90
25112;DHT22;13092;51.996;4.458;2022-10-19T05:51:09;8.90;99.90
25112;DHT22;13092;51.996;4.458;2022-10-19T05:53:38;8.80;99.90
25112;DHT22;13092;51.996;4.458;2022-10-19T05:56:10;8.80;99.90
25112;DHT22;13092;51.996;4.458;2022-10-19T05:58:39;8.70;99.90
25112;DHT22;13092;51.996;4.458;2022-10-19T06:01:09;8.70;99.90
25112;DHT22;13092;51.996;4.458;2022-10-19T06:03:37;8.70;99.90
25112;DHT22;13092;51.996;4.458;2022-10-19T06:06:06;8.70;99.90
25112;DHT22;13092;51.996;4.458;2022-10-19T06:08:35;8.70;99.90
25112;DHT22;13092;51.996;4.458;2022-10-19T06:11:04;8.60;99.90
25112;DHT22;13092;51.996;4.458;2022-10-19T06:13:33;8.70;99.90
25112;DHT22;13092;51.996;4.458;2022-10-19T06:16:01;8.70;99.90
25112;DHT22;13092;51.996;4.458;2022-10-19T06:18:31;8.80;99.90
25112;DHT22;13092;51.996;4.458;2022-10-19T06:21:01;8.60;99.90
25112;DHT22;13092;51.996;4.458;2022-10-19T06:23:29;8.60;99.90
25112;DHT22;13092;51.996;4.458;2022-10-19T06:25:58;8.50;99.90
25112;DHT22;13092;51.996;4.458;2022-10-19T06:28:26;8.70;99.90
25112;DHT22;13092;51.996;4.458;2022-10-19T06:30:56;8.60;99.90
25112;DHT22;13092;51.996;4.458;2022-10-19T06:33:25;8.70;99.90
25112;DHT22;13092;51.996;4.458;2022-10-19T06:35:54;8.70;99.90
25112;DHT22;13092;51.996;4.458;2022-10-19T06:38:24;8.70;99.90
25112;DHT22;13092;51.996;4.458;2022-10-19T06:40:57;8.80;99.90
25112;DHT22;13092;51.996;4.458;2022-10-19T06:43:26;8.80;99.90
25112;DHT22;13092;51.996;4.458;2022-10-19T06:45:54;8.80;99.90
25112;DHT22;13092;51.996;4.458;2022-10-19T06:48:23;8.80;99.90
25112;DHT22;13092;51.996;4.458;2022-10-19T06:51:00;8.80;99.90
25112;DHT22;13092;51.996;4.458;2022-10-19T06:53:32;8.90;99.90
25112;DHT22;13092;51.996;4.458;2022-10-19T06:56:02;8.90;99.90
25112;DHT22;13092;51.996;4.458;2022-10-19T06:58:34;9.00;99.90
25112;DHT22;13092;51.996;4.458;2022-10-19T07:01:03;9.00;99.90
25112;DHT22;13092;51.996;4.458;2022-10-19T07:03:33;9.20;99.90
25112;DHT22;13092;51.996;4.458;2022-10-19T07:06:04;9.10;99.90
25112;DHT22;13092;51.996;4.458;2022-10-19T07:08:34;9.20;99.90
25112;DHT22;13092;51.996;4.458;2022-10-19T07:11:05;9.10;99.90
25112;DHT22;13092;51.996;4.458;2022-10-19T07:13:34;9.30;99.90
25112;DHT22;13092;51.996;4.458;2022-10-19T07:16:04;9.40;99.90
25112;DHT22;13092;51.996;4.458;2022-10-19T07:18:34;9.40;99.90
25112;DHT22;13092;51.996;4.458;2022-10-19T07:21:05;9.40;99.90
25112;DHT22;13092;51.996;4.458;2022-10-19T07:23:35;9.50;99.90
25112;DHT22;13092;51.996;4.458;2022-10-19T07:26:05;9.60;99.90
25112;DHT22;13092;51.996;4.458;2022-10-19T07:28:33;9.60;99.90
25112;DHT22;13092;51.996;4.458;2022-10-19T07:31:06;9.70;99.90
25112;DHT22;13092;51.996;4.458;2022-10-19T07:33:35;9.70;99.90
25112;DHT22;13092;51.996;4.458;2022-10-19T07:36:07;9.80;99.90
25112;DHT22;13092;51.996;4.458;2022-10-19T07:38:36;9.90;99.90
25112;DHT22;13092;51.996;4.458;2022-10-19T07:41:06;9.80;99.90
25112;DHT22;13092;51.996;4.458;2022-10-19T07:43:34;10.10;99.90
25112;DHT22;13092;51.996;4.458;2022-10-19T07:46:04;10.00;99.90
25112;DHT22;13092;51.996;4.458;2022-10-19T07:48:33;10.00;99.90
25112;DHT22;13092;51.996;4.458;2022-10-19T07:51:03;10.10;99.90
25112;DHT22;13092;51.996;4.458;2022-10-19T07:53:33;10.10;99.90
25112;DHT22;13092;51.996;4.458;2022-10-19T07:56:03;10.10;99.90
25112;DHT22;13092;51.996;4.458;2022-10-19T07:58:32;10.30;99.90
25112;DHT22;13092;51.996;4.458;2022-10-19T08:01:01;10.40;99.90
25112;DHT22;13092;51.996;4.458;2022-10-19T08:03:30;10.50;99.90
25112;DHT22;13092;51.996;4.458;2022-10-19T08:06:18;10.50;99.90
25112;DHT22;13092;51.996;4.458;2022-10-19T08:08:48;10.50;99.90
25112;DHT22;13092;51.996;4.458;2022-10-19T08:11:18;10.60;99.90
25112;DHT22;13092;51.996;4.458;2022-10-19T08:13:46;10.70;99.90
25112;DHT22;13092;51.996;4.458;2022-10-19T08:16:23;10.90;99.90
25112;DHT22;13092;51.996;4.458;2022-10-19T08:18:54;10.90;99.90
25112;DHT22;13092;51.996;4.458;2022-10-19T08:21:22;11.00;99.90
25112;DHT22;13092;51.996;4.458;2022-10-19T08:23:52;11.00;99.90
25112;DHT22;13092;51.996;4.458;2022-10-19T08:26:20;11.10;99.90
25112;DHT22;13092;51.996;4.458;2022-10-19T08:28:48;11.20;99.90
25112;DHT22;13092;51.996;4.458;2022-10-19T08:31:18;11.30;99.90
25112;DHT22;13092;51.996;4.458;2022-10-19T08:33:48;11.30;99.90
25112;DHT22;13092;51.996;4.458;2022-10-19T08:36:17;11.40;99.90
25112;DHT22;13092;51.996;4.458;2022-10-19T08:38:46;11.50;99.90
25112;DHT22;13092;51.996;4.458;2022-10-19T08:41:21;11.60;99.90
25112;DHT22;13092;51.996;4.458;2022-10-19T08:44:10;11.70;99.90
25112;DHT22;13092;51.996;4.458;2022-10-19T08:46:47;11.70;99.90
25112;DHT22;13092;51.996;4.458;2022-10-19T08:49:21;11.80;99.90
25112;DHT22;13092;51.996;4.458;2022-10-19T08:51:54;11.80;99.90
25112;DHT22;13092;51.996;4.458;2022-10-19T08:54:29;11.90;99.90
25112;DHT22;13092;51.996;4.458;2022-10-19T08:57:07;11.80;99.90
25112;DHT22;13092;51.996;4.458;2022-10-19T08:59:43;12.00;99.90
25112;DHT22;13092;51.996;4.458;2022-10-19T09:02:18;12.00;99.90
25112;DHT22;13092;51.996;4.458;2022-10-19T09:04:53;12.10;99.90
25112;DHT22;13092;51.996;4.458;2022-10-19T09:07:27;12.20;99.90
25112;DHT22;13092;51.996;4.458;2022-10-19T09:09:59;12.30;99.90
25112;DHT22;13092;51.996;4.458;2022-10-19T09:12:36;12.40;99.90
25112;DHT22;13092;51.996;4.458;2022-10-19T09:15:11;12.50;99.90
25112;DHT22;13092;51.996;4.458;2022-10-19T09:17:39;12.50;99.90
25112;DHT22;13092;51.996;4.458;2022-10-19T09:20:16;12.60;99.90
25112;DHT22;13092;51.996;4.458;2022-10-19T09:22:46;12.60;99.90
25112;DHT22;13092;51.996;4.458;2022-10-19T09:25:19;12.70;99.90
25112;DHT22;13092;51.996;4.458;2022-10-19T09:27:59;12.80;99.90
25112;DHT22;13092;51.996;4.458;2022-10-19T09:30:29;12.80;99.90
25112;DHT22;13092;51.996;4.458;2022-10-19T09:33:05;12.80;99.90
25112;DHT22;13092;51.996;4.458;2022-10-19T09:35:43;12.90;99.90
25112;DHT22;13092;51.996;4.458;2022-10-19T09:38:14;13.00;99.90
25112;DHT22;13092;51.996;4.458;2022-10-19T09:40:43;12.90;99.90
25112;DHT22;13092;51.996;4.458;2022-10-19T09:43:13;13.10;99.90
25112;DHT22;13092;51.996;4.458;2022-10-19T09:45:50;13.10;99.90
25112;DHT22;13092;51.996;4.458;2022-10-19T09:48:26;13.10;99.90
25112;DHT22;13092;51.996;4.458;2022-10-19T09:50:57;13.10;99.90
25112;DHT22;13092;51.996;4.458;2022-10-19T09:53:26;13.10;99.90
25112;DHT22;13092;51.996;4.458;2022-10-19T09:56:02;13.10;99.90
25112;DHT22;13092;51.996;4.458;2022-10-19T09:58:32;13.10;99.90
25112;DHT22;13092;51.996;4.458;2022-10-19T10:01:01;13.10;99.90
25112;DHT22;13092;51.996;4.458;2022-10-19T10:03:31;13.20;99.90
25112;DHT22;13092;51.996;4.458;2022-10-19T10:06:03;13.20;99.90
25112;DHT22;13092;51.996;4.458;2022-10-19T10:08:35;13.30;99.90
25112;DHT22;13092;51.996;4.458;2022-10-19T10:11:07;13.30;99.90
25112;DHT22;13092;51.996;4.458;2022-10-19T10:13:40;13.30;99.90
25112;DHT22;13092;51.996;4.458;2022-10-19T10:16:10;13.30;99.90
25112;DHT22;13092;51.996;4.458;2022-10-19T10:18:50;13.40;99.90
25112;DHT22;13092;51.996;4.458;2022-10-19T10:21:21;13.40;99.90
25112;DHT22;13092;51.996;4.458;2022-10-19T10:24:00;13.50;99.90
25112;DHT22;13092;51.996;4.458;2022-10-19T10:26:29;13.50;99.90
25112;DHT22;13092;51.996;4.458;2022-10-19T10:28:59;13.50;99.90
25112;DHT22;13092;51.996;4.458;2022-10-19T10:31:29;13.50;99.90
25112;DHT22;13092;51.996;4.458;2022-10-19T10:33:58;13.70;99.90
25112;DHT22;13092;51.996;4.458;2022-10-19T10:36:49;13.60;99.90
25112;DHT22;13092;51.996;4.458;2022-10-19T10:39:18;13.70;99.90
25112;DHT22;13092;51.996;4.458;2022-10-19T10:41:47;13.80;99.90
25112;DHT22;13092;51.996;4.458;2022-10-19T10:44:19;13.80;99.90
25112;DHT22;13092;51.996;4.458;2022-10-19T12:57:59;15.50;99.90
25112;DHT22;13092;51.996;4.458;2022-10-19T13:00:30;15.40;99.90
25112;DHT22;13092;51.996;4.458;2022-10-19T13:03:02;15.50;99.90
25112;DHT22;13092;51.996;4.458;2022-10-19T13:05:32;15.40;99.90
25112;DHT22;13092;51.996;4.458;2022-10-19T13:08:02;15.70;99.90
25112;DHT22;13092;51.996;4.458;2022-10-19T13:10:36;15.70;99.90
25112;DHT22;13092;51.996;4.458;2022-10-19T13:19:20;15.80;99.90
25112;DHT22;13092;51.996;4.458;2022-10-19T13:21:53;15.80;99.90
25112;DHT22;13092;51.996;4.458;2022-10-19T13:24:32;16.00;99.90
25112;DHT22;13092;51.996;4.458;2022-10-19T13:27:23;16.00;99.90
25112;DHT22;13092;51.996;4.458;2022-10-19T13:29:53;15.80;99.90
25112;DHT22;13092;51.996;4.458;2022-10-19T13:32:34;15.90;99.90
25112;DHT22;13092;51.996;4.458;2022-10-19T13:35:31;15.80;99.90
25112;DHT22;13092;51.996;4.458;2022-10-19T13:38:30;15.80;99.90
25112;DHT22;13092;51.996;4.458;2022-10-19T13:41:05;15.80;99.90
25112;DHT22;13092;51.996;4.458;2022-10-19T13:43:37;15.90;99.90
25112;DHT22;13092;51.996;4.458;2022-10-19T13:46:12;15.90;99.90
25112;DHT22;13092;51.996;4.458;2022-10-19T13:51:56;15.90;99.90
25112;DHT22;13092;51.996;4.458;2022-10-19T13:54:45;16.00;99.90
25112;DHT22;13092;51.996;4.458;2022-10-19T13:57:22;16.00;99.90
25112;DHT22;13092;51.996;4.458;2022-10-19T14:00:13;16.00;99.90
25112;DHT22;13092;51.996;4.458;2022-10-19T14:05:50;16.10;99.90
25112;DHT22;13092;51.996;4.458;2022-10-19T14:11:17;16.10;99.90
25112;DHT22;13092;51.996;4.458;2022-10-19T14:14:07;16.10;99.90
25112;DHT22;13092;51.996;4.458;2022-10-19T14:16:44;16.10;99.90
25112;DHT22;13092;51.996;4.458;2022-10-19T14:19:21;16.00;99.90
25112;DHT22;13092;51.996;4.458;2022-10-19T14:21:54;16.10;99.90
25112;DHT22;13092;51.996;4.458;2022-10-19T14:24:28;16.00;99.90
25112;DHT22;13092;51.996;4.458;2022-10-19T14:26:58;15.90;99.90
25112;DHT22;13092;51.996;4.458;2022-10-19T14:29:31;16.00;99.90
25112;DHT22;13092;51.996;4.458;2022-10-19T14:32:01;16.20;99.90
25112;DHT22;13092;51.996;4.458;2022-10-19T14:34:31;16.10;99.90
25112;DHT22;13092;51.996;4.458;2022-10-19T14:36:59;16.00;99.90
25112;DHT22;13092;51.996;4.458;2022-10-19T14:39:30;16.00;99.90
25112;DHT22;13092;51.996;4.458;2022-10-19T14:42:03;16.00;99.90
25112;DHT22;13092;51.996;4.458;2022-10-19T14:44:37;16.00;99.90
25112;DHT22;13092;51.996;4.458;2022-10-19T14:47:15;16.00;99.90
25112;DHT22;13092;51.996;4.458;2022-10-19T14:49:45;16.10;99.90
25112;DHT22;13092;51.996;4.458;2022-10-19T14:52:16;15.90;99.90
25112;DHT22;13092;51.996;4.458;2022-10-19T14:54:48;15.90;99.90
25112;DHT22;13092;51.996;4.458;2022-10-19T14:57:22;15.80;99.90
25112;DHT22;13092;51.996;4.458;2022-10-19T14:59:54;15.80;99.90
25112;DHT22;13092;51.996;4.458;2022-10-19T15:02:25;15.90;99.90
25112;DHT22;13092;51.996;4.458;2022-10-19T15:04:58;15.90;99.90
25112;DHT22;13092;51.996;4.458;2022-10-19T15:07:33;15.80;99.90
25112;DHT22;13092;51.996;4.458;2022-10-19T15:10:05;15.70;99.90
25112;DHT22;13092;51.996;4.458;2022-10-19T15:12:38;15.70;99.90
25112;DHT22;13092;51.996;4.458;2022-10-19T15:15:18;15.60;99.90
25112;DHT22;13092;51.996;4.458;2022-10-19T15:17:51;15.60;99.90
25112;DHT22;13092;51.996;4.458;2022-10-19T15:20:26;15.50;99.90
25112;DHT22;13092;51.996;4.458;2022-10-19T15:22:55;15.50;99.90
25112;DHT22;13092;51.996;4.458;2022-10-19T15:25:27;15.50;99.90
25112;DHT22;13092;51.996;4.458;2022-10-19T15:27:56;15.40;99.90
25112;DHT22;13092;51.996;4.458;2022-10-19T15:30:26;15.40;99.90
25112;DHT22;13092;51.996;4.458;2022-10-19T15:33:08;15.30;99.90
25112;DHT22;13092;51.996;4.458;2022-10-19T15:35:39;15.20;99.90
25112;DHT22;13092;51.996;4.458;2022-10-19T15:38:16;15.00;99.90
25112;DHT22;13092;51.996;4.458;2022-10-19T15:40:46;15.00;99.90
25112;DHT22;13092;51.996;4.458;2022-10-19T15:43:36;15.00;99.90
25112;DHT22;13092;51.996;4.458;2022-10-19T15:46:06;15.00;99.90
25112;DHT22;13092;51.996;4.458;2022-10-19T15:48:47;14.90;99.90
25112;DHT22;13092;51.996;4.458;2022-10-19T15:51:43;14.90;99.90
25112;DHT22;13092;51.996;4.458;2022-10-19T15:54:13;14.90;99.90
25112;DHT22;13092;51.996;4.458;2022-10-19T15:56:44;14.70;99.90
25112;DHT22;13092;51.996;4.458;2022-10-19T15:59:15;14.70;99.90
25112;DHT22;13092;51.996;4.458;2022-10-19T16:01:44;14.80;99.90
25112;DHT22;13092;51.996;4.458;2022-10-19T16:04:20;14.60;99.90
25112;DHT22;13092;51.996;4.458;2022-10-19T16:06:50;14.50;99.90
25112;DHT22;13092;51.996;4.458;2022-10-19T16:09:20;14.50;99.90
25112;DHT22;13092;51.996;4.458;2022-10-19T16:11:48;14.40;99.90
25112;DHT22;13092;51.996;4.458;2022-10-19T16:14:22;14.50;99.90
25112;DHT22;13092;51.996;4.458;2022-10-19T16:16:52;14.50;99.90
25112;DHT22;13092;51.996;4.458;2022-10-19T16:22:05;14.30;99.90
25112;DHT22;13092;51.996;4.458;2022-10-19T16:24:34;14.30;99.90
25112;DHT22;13092;51.996;4.458;2022-10-19T16:27:02;14.20;99.90
25112;DHT22;13092;51.996;4.458;2022-10-19T16:29:31;14.20;99.90
25112;DHT22;13092;51.996;4.458;2022-10-19T16:31:59;14.30;99.90
25112;DHT22;13092;51.996;4.458;2022-10-19T16:34:27;14.10;99.90
25112;DHT22;13092;51.996;4.458;2022-10-19T16:36:55;14.10;99.90
25112;DHT22;13092;51.996;4.458;2022-10-19T16:39:28;14.00;99.90
25112;DHT22;13092;51.996;4.458;2022-10-19T16:41:56;13.90;99.90
25112;DHT22;13092;51.996;4.458;2022-10-19T16:44:24;13.90;99.90
25112;DHT22;13092;51.996;4.458;2022-10-19T16:46:54;14.10;99.90
25112;DHT22;13092;51.996;4.458;2022-10-19T16:49:23;13.90;99.90
25112;DHT22;13092;51.996;4.458;2022-10-19T16:51:52;13.90;99.90
25112;DHT22;13092;51.996;4.458;2022-10-19T16:54:23;13.80;99.90
25112;DHT22;13092;51.996;4.458;2022-10-19T16:56:54;13.90;99.90
25112;DHT22;13092;51.996;4.458;2022-10-19T16:59:22;13.90;99.90
25112;DHT22;13092;51.996;4.458;2022-10-19T17:01:50;13.80;99.90
25112;DHT22;13092;51.996;4.458;2022-10-19T17:04:19;13.70;99.90
25112;DHT22;13092;51.996;4.458;2022-10-19T17:06:47;13.70;99.90
25112;DHT22;13092;51.996;4.458;2022-10-19T17:09:15;13.70;99.90
25112;DHT22;13092;51.996;4.458;2022-10-19T17:12:05;13.70;99.90
25112;DHT22;13092;51.996;4.458;2022-10-19T17:14:34;13.70;99.90
25112;DHT22;13092;51.996;4.458;2022-10-19T17:17:02;13.70;99.90
25112;DHT22;13092;51.996;4.458;2022-10-19T17:19:31;13.70;99.90
25112;DHT22;13092;51.996;4.458;2022-10-19T17:21:59;13.70;99.90
25112;DHT22;13092;51.996;4.458;2022-10-19T17:24:28;13.60;99.90
25112;DHT22;13092;51.996;4.458;2022-10-19T17:26:56;13.60;99.90
25112;DHT22;13092;51.996;4.458;2022-10-19T17:29:29;13.50;99.90
25112;DHT22;13092;51.996;4.458;2022-10-19T17:31:57;13.60;99.90
25112;DHT22;13092;51.996;4.458;2022-10-19T17:34:25;13.60;99.90
25112;DHT22;13092;51.996;4.458;2022-10-19T17:36:54;13.60;99.90
25112;DHT22;13092;51.996;4.458;2022-10-19T17:39:23;13.60;99.90
25112;DHT22;13092;51.996;4.458;2022-10-19T17:41:56;13.70;99.90
25112;DHT22;13092;51.996;4.458;2022-10-19T17:44:29;13.50;99.90
25112;DHT22;13092;51.996;4.458;2022-10-19T17:46:58;13.50;99.90
25112;DHT22;13092;51.996;4.458;2022-10-19T17:49:27;13.50;99.90
25112;DHT22;13092;51.996;4.458;2022-10-19T17:51:55;13.50;99.90
25112;DHT22;13092;51.996;4.458;2022-10-19T17:54:24;13.40;99.90
25112;DHT22;13092;51.996;4.458;2022-10-19T17:56:52;13.40;99.90
25112;DHT22;13092;51.996;4.458;2022-10-19T17:59:20;13.40;99.90
25112;DHT22;13092;51.996;4.458;2022-10-19T18:02:08;13.40;99.90
25112;DHT22;13092;51.996;4.458;2022-10-19T18:04:36;13.30;99.90
25112;DHT22;13092;51.996;4.458;2022-10-19T18:07:05;13.30;99.90
25112;DHT22;13092;51.996;4.458;2022-10-19T18:09:33;13.30;99.90
25112;DHT22;13092;51.996;4.458;2022-10-19T18:12:01;13.20;99.90
25112;DHT22;13092;51.996;4.458;2022-10-19T18:14:32;13.20;99.90
25112;DHT22;13092;51.996;4.458;2022-10-19T18:17:00;13.10;99.90
25112;DHT22;13092;51.996;4.458;2022-10-19T18:19:30;13.10;99.90
25112;DHT22;13092;51.996;4.458;2022-10-19T18:21:58;13.10;99.90
25112;DHT22;13092;51.996;4.458;2022-10-19T18:24:26;13.10;99.90
25112;DHT22;13092;51.996;4.458;2022-10-19T18:26:54;13.10;99.90
25112;DHT22;13092;51.996;4.458;2022-10-19T18:29:24;13.00;99.90
25112;DHT22;13092;51.996;4.458;2022-10-19T18:31:53;12.90;99.90
25112;DHT22;13092;51.996;4.458;2022-10-19T18:34:23;12.90;99.90
25112;DHT22;13092;51.996;4.458;2022-10-19T18:36:53;12.90;99.90